Menahga, MN (56464)

6:05 AM CST on December 11, 2016 (GMT -0600)
Park Rapids Municipal | | Change Station

Elev 1440 ft 46.90 °N, 95.07 °W | Updated 12 minutes ago

Snow
Snow
6 °F
Feels Like -7 °F
N
8
Wind Variable Wind from ENE

Today
High -- | Low -- °F
--% Chance of Precip.
Yesterday
High -- | Low -- °F
Precip. -- in
Pressure 30.11 in
Visibility 1.0 miles
Clouds
Windchill -7 °F
Dew Point -1 °F
Humidity 73%
Rainfall 0.01 in
Snow Depth Not available.
7:55 AM 4:32 PM
Waxing Gibbous, 91% visible
METAR KPKD 111153Z AUTO 07007KT 1SM -SN VV016 M14/M18 A2999 RMK AO2 SLP194 P0001 60001 70001 T11441183 11144 21156 56012
Pressure 30.11 in
Visibility 1.0 miles
Clouds
Windchill -7 °F
Dew Point -1 °F
Humidity 73%
Rainfall 0.01 in
Snow Depth Not available.
7:55 AM 4:32 PM
Waxing Gibbous, 91% visible
METAR KPKD 111153Z AUTO 07007KT 1SM -SN VV016 M14/M18 A2999 RMK AO2 SLP194 P0001 60001 70001 T11441183 11144 21156 56012

10-Day Weather Forecast

Almanac

Astronomy

Dec. 11, 2016 Rise Set
Actual Time
Civil Twilight
Nautical Twilight
Astronomical Twilight
Moon
Length of Visible Light
Length of Day
Tomorrow will be .
, % of the Moon is Illuminated

Today's Extremes

State Highs State Lows

Community

WunderPhotos

Upload Photos

1,956,710 photos uploaded!

WunderBlog® & News

Nearby

Air Quality

  Air Quality AQ Index Pollutant
Not available.

Snow Depth

Station Depth Elevation

Earthquake Activity

City Distance Mag. Time & Date
Minimum magnitude displayed is 2.5.

Coastal Water Temperatures

Place Temperature

Stations

Nearby Weather Stations

Station Location Temp. Windchill Dew Point Humidity Wind Precip. Elev Updated Type
                   

Watches & Warnings

There are currently no watches in effect.